Time;durP1;ratioP1;P1;durP2;ratioP2;P2;SDS_P1;SDS_P2;PMS_P1;PMS_P2;Temp;Humidity;BMP_temperature;BMP_pressure;BME280_temperature;BME280_humidity;BME280_pressure;Samples;Min_cycle;Max_cycle;Signal;HPM_P1;HPM_P2
2023/10/23 00:00:50;;;;;;;2.17;2.05;;;9.40;99.90;;;;;;5027257;28;20197;-81
2023/10/23 00:03:17;;;;;;;0.55;0.55;;;9.40;99.90;;;;;;5020449;28;20431;-80
2023/10/23 00:05:45;;;;;;;1.45;0.70;;;9.40;99.90;;;;;;5027017;28;20397;-80
2023/10/23 00:08:12;;;;;;;0.77;0.77;;;9.40;99.90;;;;;;5034179;28;20212;-81
2023/10/23 00:10:42;;;;;;;1.90;1.80;;;9.50;99.90;;;;;;5028457;28;20241;-82
2023/10/23 00:13:09;;;;;;;0.70;0.70;;;9.50;99.90;;;;;;5032173;28;20208;-81
2023/10/23 00:15:36;;;;;;;1.40;1.30;;;9.50;99.90;;;;;;5027308;28;20280;-82
2023/10/23 00:18:03;;;;;;;1.75;1.48;;;9.50;99.90;;;;;;5022182;28;20205;-83
2023/10/23 00:20:30;;;;;;;1.42;1.33;;;9.50;99.90;;;;;;5022099;28;20221;-84
2023/10/23 00:22:57;;;;;;;1.67;1.58;;;9.50;99.90;;;;;;5020975;28;20237;-80
2023/10/23 00:25:24;;;;;;;2.20;2.10;;;9.50;99.90;;;;;;5021162;28;20457;-82
2023/10/23 00:27:51;;;;;;;1.98;1.88;;;9.50;99.90;;;;;;5028161;28;20192;-80
2023/10/23 00:30:18;;;;;;;2.17;2.05;;;9.50;99.90;;;;;;5034992;28;20233;-81
2023/10/23 00:32:45;;;;;;;0.50;0.50;;;9.50;99.90;;;;;;5042349;28;20209;-82
2023/10/23 00:35:12;;;;;;;4.57;3.47;;;9.50;99.90;;;;;;5053984;28;20189;-81
2023/10/23 00:37:39;;;;;;;1.73;0.88;;;9.50;99.90;;;;;;5034828;28;20281;-83
2023/10/23 00:40:08;;;;;;;1.50;1.40;;;9.50;99.90;;;;;;5038948;28;20228;-81
2023/10/23 00:42:35;;;;;;;2.17;2.08;;;9.50;99.90;;;;;;5039836;28;20224;-83
2023/10/23 00:45:02;;;;;;;0.95;0.95;;;9.40;99.90;;;;;;5037234;28;20232;-81
2023/10/23 00:47:30;;;;;;;1.13;1.13;;;9.40;99.90;;;;;;5044690;28;20227;-82
2023/10/23 00:49:59;;;;;;;0.75;0.75;;;9.40;99.90;;;;;;5029907;28;20705;-82
2023/10/23 00:52:26;;;;;;;0.77;0.77;;;9.40;99.90;;;;;;5029138;28;20223;-84
2023/10/23 00:54:53;;;;;;;0.93;0.93;;;9.50;99.90;;;;;;5026603;28;20217;-83
2023/10/23 00:57:24;;;;;;;3.67;3.47;;;9.40;99.90;;;;;;5032005;28;20205;-82
2023/10/23 00:59:55;;;;;;;4.07;1.75;;;9.40;99.90;;;;;;5037123;28;20205;-84
2023/10/23 01:02:21;;;;;;;3.53;3.33;;;9.50;99.90;;;;;;5026373;28;20296;-84
2023/10/23 01:04:50;;;;;;;2.15;2.05;;;9.60;99.90;;;;;;5020358;28;20240;-82
2023/10/23 01:07:17;;;;;;;1.40;1.20;;;9.60;99.90;;;;;;5021596;28;20199;-83
2023/10/23 01:09:44;;;;;;;0.50;0.50;;;9.60;99.90;;;;;;5030733;28;20441;-82
2023/10/23 01:12:11;;;;;;;2.35;2.25;;;9.60;99.90;;;;;;5028009;28;20433;-82
2023/10/23 01:14:38;;;;;;;0.50;0.50;;;9.50;99.90;;;;;;5016774;28;20252;-83
2023/10/23 01:17:05;;;;;;;1.48;1.48;;;9.60;99.90;;;;;;5022611;28;20213;-82
2023/10/23 01:19:33;;;;;;;3.13;2.85;;;9.60;99.90;;;;;;5019590;28;20252;-82
2023/10/23 01:22:00;;;;;;;0.80;0.80;;;9.50;99.90;;;;;;5018347;28;20209;-81
2023/10/23 01:24:32;;;;;;;1.20;1.10;;;9.50;99.90;;;;;;5018929;28;20206;-80
2023/10/23 01:26:59;;;;;;;0.60;0.60;;;9.50;99.90;;;;;;5019128;28;20201;-80
2023/10/23 01:29:26;;;;;;;1.92;1.83;;;9.50;99.90;;;;;;5019025;28;20206;-80
2023/10/23 01:31:53;;;;;;;0.50;0.50;;;9.50;99.90;;;;;;5019665;28;20235;-80
2023/10/23 01:34:20;;;;;;;1.95;1.83;;;9.40;99.90;;;;;;5028937;28;20273;-81
2023/10/23 01:36:47;;;;;;;1.20;1.13;;;9.50;99.90;;;;;;5033103;28;20261;-82
2023/10/23 01:39:14;;;;;;;0.57;0.57;;;9.40;99.90;;;;;;5016780;28;20212;-81
2023/10/23 01:41:42;;;;;;;1.90;1.77;;;9.40;99.90;;;;;;5021147;28;20244;-81
2023/10/23 01:44:09;;;;;;;4.72;3.05;;;9.40;99.90;;;;;;5033637;28;20375;-80
2023/10/23 01:46:37;;;;;;;0.77;0.77;;;9.50;99.90;;;;;;5023142;28;20231;-80
2023/10/23 01:49:05;;;;;;;1.05;1.05;;;9.50;99.90;;;;;;5019942;28;20220;-80
2023/10/23 01:51:32;;;;;;;1.10;1.00;;;9.50;99.90;;;;;;5021425;28;20245;-80
2023/10/23 01:53:59;;;;;;;0.70;0.70;;;9.50;99.90;;;;;;5018626;28;20460;-80
2023/10/23 01:56:26;;;;;;;1.00;1.00;;;9.50;99.90;;;;;;5033442;28;20219;-81
2023/10/23 01:58:53;;;;;;;1.58;0.75;;;9.50;99.90;;;;;;5017481;28;20372;-81
2023/10/23 02:01:24;;;;;;;1.90;1.83;;;9.60;99.90;;;;;;5023936;28;20205;-80
2023/10/23 02:03:51;;;;;;;1.15;1.13;;;9.70;99.90;;;;;;5016395;28;20449;-79
2023/10/23 02:06:18;;;;;;;1.73;1.60;;;9.60;99.90;;;;;;5033829;28;20260;-82
2023/10/23 02:08:46;;;;;;;0.40;0.40;;;9.70;99.90;;;;;;5027407;28;20343;-84
2023/10/23 02:11:12;;;;;;;2.45;0.93;;;9.70;99.90;;;;;;5012633;28;20300;-81
2023/10/23 02:13:39;;;;;;;2.00;1.88;;;9.70;99.90;;;;;;5020982;28;20244;-82
2023/10/23 02:16:06;;;;;;;1.23;1.05;;;9.60;99.90;;;;;;5026395;28;20283;-83
2023/10/23 02:18:33;;;;;;;1.13;1.13;;;9.60;99.90;;;;;;5021900;28;20216;-81
2023/10/23 02:21:01;;;;;;;0.95;0.85;;;9.70;99.90;;;;;;5025562;28;20213;-83
2023/10/23 02:23:31;;;;;;;0.50;0.50;;;9.70;99.90;;;;;;5026048;28;20248;-83
2023/10/23 02:26:18;;;;;;;0.75;0.75;;;9.80;99.90;;;;;;5031843;28;20390;-81
2023/10/23 02:28:45;;;;;;;1.08;0.98;;;9.70;99.90;;;;;;5021978;28;20248;-81
2023/10/23 02:31:12;;;;;;;0.60;0.60;;;9.70;99.90;;;;;;5017404;28;20233;-83
2023/10/23 02:33:40;;;;;;;1.00;1.00;;;9.70;99.90;;;;;;5019710;28;20243;-83
2023/10/23 02:36:07;;;;;;;2.30;2.20;;;9.70;99.90;;;;;;5028171;28;20362;-82
2023/10/23 02:38:34;;;;;;;0.75;0.75;;;9.70;99.90;;;;;;5025939;28;20217;-81
2023/10/23 02:41:01;;;;;;;1.90;1.80;;;9.70;99.90;;;;;;5025423;28;20211;-81
2023/10/23 02:43:28;;;;;;;1.80;1.67;;;9.70;99.90;;;;;;5025053;28;20223;-82
2023/10/23 02:46:00;;;;;;;1.05;1.05;;;9.70;99.90;;;;;;5021298;28;20205;-81
2023/10/23 02:48:29;;;;;;;4.50;1.85;;;9.80;99.90;;;;;;5022512;28;20204;-82
2023/10/23 02:50:57;;;;;;;0.40;0.40;;;9.70;99.90;;;;;;5020646;28;20243;-81
2023/10/23 02:53:24;;;;;;;1.75;1.65;;;9.70;99.90;;;;;;5025217;28;20731;-81
2023/10/23 02:55:52;;;;;;;1.05;1.05;;;9.70;99.90;;;;;;5017500;28;20263;-81
2023/10/23 02:58:18;;;;;;;0.98;0.98;;;9.70;99.90;;;;;;5017821;28;20236;-83
2023/10/23 03:00:46;;;;;;;0.82;0.82;;;9.80;99.90;;;;;;5014699;28;20282;-81
2023/10/23 03:03:13;;;;;;;1.33;1.33;;;9.80;99.90;;;;;;5022665;28;20224;-80
2023/10/23 03:05:40;;;;;;;6.15;1.88;;;9.70;99.90;;;;;;5023526;28;20209;-82
2023/10/23 03:08:08;;;;;;;1.55;1.45;;;9.80;99.90;;;;;;5030283;28;20237;-80
2023/10/23 03:10:35;;;;;;;4.80;1.30;;;9.80;99.90;;;;;;5021406;28;20241;-82
2023/10/23 03:13:02;;;;;;;0.88;0.88;;;9.80;99.90;;;;;;5018417;28;20268;-81
2023/10/23 03:15:31;;;;;;;0.90;0.90;;;9.80;99.90;;;;;;5018558;28;20212;-82
2023/10/23 03:18:05;;;;;;;1.10;1.10;;;9.80;99.90;;;;;;5014354;28;20210;-82
2023/10/23 03:20:34;;;;;;;0.88;0.88;;;9.70;99.90;;;;;;5022755;28;20211;-82
2023/10/23 03:23:00;;;;;;;1.05;1.05;;;9.70;99.90;;;;;;5009532;28;20586;-81
2023/10/23 03:25:27;;;;;;;0.73;0.73;;;9.70;99.90;;;;;;5024644;28;20205;-81
2023/10/23 03:27:55;;;;;;;2.55;2.40;;;9.70;99.90;;;;;;5023124;28;20233;-82
2023/10/23 03:30:23;;;;;;;0.65;0.63;;;9.70;99.90;;;;;;5014735;28;20280;-82
2023/10/23 03:32:51;;;;;;;2.08;1.98;;;9.80;99.90;;;;;;5018326;28;20209;-80
2023/10/23 03:35:19;;;;;;;1.35;1.35;;;9.80;99.90;;;;;;5017491;28;20205;-83
2023/10/23 03:37:47;;;;;;;2.97;2.67;;;9.80;99.90;;;;;;5024238;28;20376;-82
2023/10/23 03:40:14;;;;;;;0.98;0.98;;;9.70;99.90;;;;;;5023041;28;20264;-83
2023/10/23 03:42:41;;;;;;;0.50;0.50;;;9.70;99.90;;;;;;5025558;28;20205;-81
2023/10/23 03:45:10;;;;;;;1.70;1.60;;;9.70;99.90;;;;;;5023238;28;20213;-81
2023/10/23 03:47:37;;;;;;;1.58;1.52;;;9.80;99.90;;;;;;5020967;28;20241;-83
2023/10/23 03:50:06;;;;;;;1.00;0.93;;;9.70;99.90;;;;;;5019205;28;20210;-81
2023/10/23 03:52:33;;;;;;;1.77;1.50;;;9.80;99.90;;;;;;5020457;28;20267;-84
2023/10/23 03:55:00;;;;;;;2.00;1.85;;;9.80;99.90;;;;;;5021154;28;20205;-81
2023/10/23 03:57:27;;;;;;;1.50;1.45;;;9.90;99.90;;;;;;5026473;28;20236;-83
2023/10/23 03:59:54;;;;;;;1.33;1.23;;;9.80;99.90;;;;;;5022672;28;20560;-82
2023/10/23 04:02:21;;;;;;;2.33;1.83;;;9.80;99.90;;;;;;5022693;28;20206;-83
2023/10/23 04:04:48;;;;;;;0.65;0.65;;;9.90;99.90;;;;;;5029652;28;20213;-84
2023/10/23 04:07:15;;;;;;;0.40;0.40;;;9.90;99.90;;;;;;5023926;28;20216;-82
2023/10/23 04:09:42;;;;;;;0.90;0.90;;;9.80;99.90;;;;;;5038851;28;20529;-85
2023/10/23 04:12:09;;;;;;;0.60;0.60;;;9.80;99.90;;;;;;5028256;28;20267;-84
2023/10/23 04:14:36;;;;;;;0.50;0.50;;;9.90;99.90;;;;;;5028064;28;20213;-86
2023/10/23 04:17:04;;;;;;;0.70;0.70;;;9.90;99.90;;;;;;5021012;28;20209;-81
2023/10/23 04:19:30;;;;;;;0.85;0.85;;;9.90;99.90;;;;;;5020527;28;20255;-81
2023/10/23 04:21:58;;;;;;;2.95;2.67;;;9.80;99.90;;;;;;5025047;28;20481;-82
2023/10/23 04:24:25;;;;;;;0.32;0.32;;;9.90;99.90;;;;;;5020254;28;20233;-82
2023/10/23 04:26:52;;;;;;;0.70;0.70;;;9.90;99.90;;;;;;5021691;28;20210;-82
2023/10/23 04:29:19;;;;;;;0.70;0.70;;;9.90;99.90;;;;;;5020098;28;20205;-81
2023/10/23 04:31:46;;;;;;;2.05;1.95;;;9.90;99.90;;;;;;5026584;28;20293;-81
2023/10/23 04:34:14;;;;;;;0.70;0.70;;;9.80;99.90;;;;;;5032084;28;20205;-81
2023/10/23 04:36:41;;;;;;;4.88;4.28;;;9.90;99.90;;;;;;5019461;28;20202;-81
2023/10/23 04:39:08;;;;;;;1.00;1.00;;;9.90;99.90;;;;;;5021323;28;20268;-81
2023/10/23 04:41:35;;;;;;;0.40;0.40;;;9.80;99.90;;;;;;5032079;28;20272;-83
2023/10/23 04:44:03;;;;;;;1.75;1.65;;;9.90;99.90;;;;;;5033015;28;20245;-80
2023/10/23 04:46:30;;;;;;;1.05;1.05;;;9.90;99.90;;;;;;5034240;28;20201;-82
2023/10/23 04:48:57;;;;;;;1.75;1.67;;;9.80;99.90;;;;;;5035208;28;20201;-81
2023/10/23 04:51:26;;;;;;;34.55;3.60;;;9.80;99.90;;;;;;5017829;28;20571;-81
2023/10/23 04:53:53;;;;;;;1.88;1.77;;;9.80;99.90;;;;;;5029808;28;20217;-83
2023/10/23 04:56:24;;;;;;;1.85;1.70;;;9.80;99.90;;;;;;5021266;28;20299;-82
2023/10/23 04:58:53;;;;;;;0.50;0.50;;;9.70;99.90;;;;;;5033471;28;20216;-81
2023/10/23 05:01:22;;;;;;;0.80;0.80;;;9.70;99.90;;;;;;5029111;28;20488;-82
2023/10/23 05:03:49;;;;;;;2.53;2.40;;;9.70;99.90;;;;;;5027173;28;20255;-83
2023/10/23 05:06:25;;;;;;;1.05;1.05;;;9.70;99.90;;;;;;5027538;28;20221;-84
2023/10/23 05:08:53;;;;;;;6.85;0.85;;;9.90;99.90;;;;;;5041910;28;20379;-82
2023/10/23 05:11:20;;;;;;;0.93;0.93;;;9.70;99.90;;;;;;5036964;28;20237;-82
2023/10/23 05:13:47;;;;;;;2.30;2.08;;;9.80;99.90;;;;;;5045135;28;20222;-81
2023/10/23 05:16:15;;;;;;;2.78;1.95;;;9.90;99.90;;;;;;5038383;28;20265;-80
2023/10/23 05:18:42;;;;;;;1.60;1.50;;;9.90;99.90;;;;;;5043583;28;20243;-80
2023/10/23 05:21:11;;;;;;;1.83;1.73;;;10.00;99.90;;;;;;5034071;28;20218;-84
2023/10/23 05:23:40;;;;;;;2.30;2.20;;;9.90;99.90;;;;;;5026668;28;20236;-85
2023/10/23 05:26:10;;;;;;;4.70;1.67;;;9.90;99.90;;;;;;5021807;28;20444;-81
2023/10/23 05:28:41;;;;;;;1.15;1.15;;;9.90;99.90;;;;;;5028731;28;20279;-81
2023/10/23 05:31:09;;;;;;;0.50;0.50;;;9.90;99.90;;;;;;5018405;28;20239;-83
2023/10/23 05:33:37;;;;;;;1.52;1.48;;;10.00;99.90;;;;;;5025685;28;20433;-82
2023/10/23 05:36:06;;;;;;;1.63;1.52;;;10.00;99.90;;;;;;5016157;28;20273;-82
2023/10/23 05:38:33;;;;;;;2.88;2.67;;;10.00;99.90;;;;;;5020862;28;20209;-85
2023/10/23 05:41:00;;;;;;;1.85;1.60;;;10.00;99.90;;;;;;5019683;28;20232;-82
2023/10/23 05:43:28;;;;;;;0.88;0.88;;;10.00;99.90;;;;;;5018433;28;20210;-83
2023/10/23 05:45:55;;;;;;;1.52;1.52;;;10.00;99.90;;;;;;5024949;28;20389;-84
2023/10/23 05:48:23;;;;;;;0.93;0.93;;;10.00;99.90;;;;;;5028327;28;20228;-83
2023/10/23 05:51:01;;;;;;;0.50;0.50;;;10.10;99.90;;;;;;5022060;28;20209;-82
2023/10/23 05:53:30;;;;;;;0.95;0.95;;;10.10;99.90;;;;;;5012368;28;20245;-83
2023/10/23 05:56:04;;;;;;;1.05;1.05;;;10.10;99.90;;;;;;5019635;28;20209;-82
2023/10/23 05:58:32;;;;;;;0.68;0.68;;;10.10;99.90;;;;;;5021835;28;20208;-84
2023/10/23 06:01:12;;;;;;;0.98;0.98;;;10.10;99.90;;;;;;5023490;28;20229;-84
2023/10/23 06:03:39;;;;;;;0.40;0.40;;;10.10;99.90;;;;;;5026677;28;20213;-82
2023/10/23 06:06:07;;;;;;;1.70;1.60;;;10.20;99.90;;;;;;5021036;28;20217;-83
2023/10/23 06:08:34;;;;;;;0.40;0.40;;;10.20;99.90;;;;;;5023749;28;20210;-83
2023/10/23 06:11:01;;;;;;;0.47;0.47;;;10.20;99.90;;;;;;5021097;28;20218;-82
2023/10/23 06:13:29;;;;;;;1.92;1.83;;;10.30;99.90;;;;;;5025503;28;20217;-84
2023/10/23 06:16:02;;;;;;;6.28;4.60;;;10.30;99.90;;;;;;5019640;28;20498;-84
2023/10/23 06:18:39;;;;;;;24.80;1.05;;;10.30;99.90;;;;;;5018939;28;20208;-84
2023/10/23 06:21:06;;;;;;;1.75;1.65;;;10.40;99.90;;;;;;5028424;28;20212;-83
2023/10/23 06:23:40;;;;;;;1.20;1.15;;;10.40;99.90;;;;;;5029325;28;20522;-83
2023/10/23 06:26:08;;;;;;;0.93;0.93;;;10.50;99.90;;;;;;5019406;28;20300;-84
2023/10/23 06:28:35;;;;;;;0.50;0.50;;;10.50;99.90;;;;;;5020067;28;20271;-84
2023/10/23 06:31:10;;;;;;;0.90;0.90;;;10.50;99.90;;;;;;5020401;28;20233;-83
2023/10/23 06:33:42;;;;;;;1.58;0.68;;;10.70;99.90;;;;;;5021682;28;20204;-81
2023/10/23 06:36:10;;;;;;;0.98;0.98;;;10.90;99.90;;;;;;5030609;28;20215;-83
2023/10/23 06:38:38;;;;;;;0.50;0.50;;;11.00;99.90;;;;;;5029704;28;20309;-84
2023/10/23 06:41:06;;;;;;;0.98;0.98;;;11.00;99.90;;;;;;5040598;28;20478;-82
2023/10/23 06:43:35;;;;;;;0.80;0.80;;;11.00;99.90;;;;;;5022234;28;20268;-85
2023/10/23 06:46:07;;;;;;;0.50;0.50;;;11.20;99.90;;;;;;5020314;28;20274;-85
2023/10/23 06:48:34;;;;;;;1.27;1.23;;;11.20;99.90;;;;;;5023309;28;20525;-87
2023/10/23 06:51:03;;;;;;;1.67;1.55;;;11.20;99.90;;;;;;5021606;28;20197;-85
2023/10/23 06:53:30;;;;;;;2.78;2.60;;;11.20;99.90;;;;;;5013739;28;20225;-83
2023/10/23 06:55:58;;;;;;;0.43;0.43;;;11.20;99.90;;;;;;5020894;28;20209;-86
2023/10/23 06:58:27;;;;;;;1.15;1.15;;;11.20;99.90;;;;;;5029798;28;20410;-87
2023/10/23 07:00:54;;;;;;;0.77;0.77;;;11.10;99.90;;;;;;5019838;28;20209;-84
2023/10/23 07:03:21;;;;;;;0.70;0.70;;;11.10;99.90;;;;;;5016224;28;20209;-86
2023/10/23 07:05:48;;;;;;;0.60;0.60;;;11.10;99.90;;;;;;5019813;28;20233;-84
2023/10/23 07:08:17;;;;;;;0.73;0.73;;;11.20;99.90;;;;;;5019939;28;20212;-85
2023/10/23 07:10:45;;;;;;;0.60;0.60;;;11.30;99.90;;;;;;5029930;28;20559;-84
2023/10/23 07:13:11;;;;;;;1.08;1.08;;;11.30;99.90;;;;;;5035270;28;20223;-81
2023/10/23 07:15:49;;;;;;;0.70;0.70;;;11.40;99.90;;;;;;5015484;28;20581;-85
2023/10/23 07:18:17;;;;;;;1.13;1.13;;;11.40;99.90;;;;;;5021226;28;20273;-85
2023/10/23 07:21:02;;;;;;;1.45;1.35;;;11.40;99.90;;;;;;5028718;28;20220;-84
2023/10/23 07:23:29;;;;;;;1.17;1.17;;;11.40;99.90;;;;;;5024117;28;20236;-84
2023/10/23 07:26:08;;;;;;;0.80;0.80;;;11.40;99.90;;;;;;5021383;28;20198;-83
2023/10/23 07:28:40;;;;;;;3.33;3.22;;;11.50;99.90;;;;;;5025354;28;20244;-84
2023/10/23 07:31:09;;;;;;;1.15;1.15;;;11.60;99.90;;;;;;5031394;28;20220;-83
2023/10/23 07:33:38;;;;;;;0.80;0.80;;;11.80;99.90;;;;;;5029368;28;20329;-85
2023/10/23 07:36:10;;;;;;;3.58;3.30;;;11.80;99.90;;;;;;5030884;28;20210;-81
2023/10/23 07:38:40;;;;;;;0.60;0.60;;;12.10;99.90;;;;;;5020759;28;20205;-83
2023/10/23 07:41:09;;;;;;;0.85;0.85;;;12.10;99.90;;;;;;5019898;28;20216;-84
2023/10/23 07:43:35;;;;;;;1.95;1.85;;;12.20;99.90;;;;;;5029912;28;20213;-85
2023/10/23 07:46:08;;;;;;;0.70;0.70;;;12.30;99.90;;;;;;5022605;28;20291;-84
2023/10/23 07:48:43;;;;;;;0.50;0.50;;;12.70;99.90;;;;;;5020661;28;20212;-84
2023/10/23 07:51:11;;;;;;;1.10;1.10;;;13.30;99.90;;;;;;5021133;28;20210;-84
2023/10/23 07:53:38;;;;;;;0.60;0.60;;;13.10;99.90;;;;;;5029890;28;20446;-83
2023/10/23 07:56:05;;;;;;;0.60;0.60;;;13.00;99.90;;;;;;5021930;28;20206;-85
2023/10/23 07:58:33;;;;;;;1.30;1.23;;;13.20;99.90;;;;;;5030055;28;20451;-84
2023/10/23 08:01:04;;;;;;;1.27;1.27;;;13.20;99.90;;;;;;5022152;28;20445;-85
2023/10/23 08:03:33;;;;;;;1.03;1.03;;;13.30;99.90;;;;;;5012262;28;20456;-85
2023/10/23 08:06:05;;;;;;;0.70;0.70;;;13.30;99.90;;;;;;5023468;28;20604;-83
2023/10/23 08:08:36;;;;;;;0.70;0.70;;;13.20;99.90;;;;;;5022459;28;21017;-85
2023/10/23 08:11:04;;;;;;;9.07;1.90;;;13.40;99.90;;;;;;5019366;28;20497;-85
2023/10/23 08:13:32;;;;;;;0.70;0.70;;;13.40;99.90;;;;;;5019502;28;20521;-83
2023/10/23 08:15:59;;;;;;;14.67;0.90;;;13.50;99.90;;;;;;5018010;28;20446;-81
2023/10/23 08:18:27;;;;;;;2.23;2.13;;;13.60;99.90;;;;;;5018686;28;20507;-84
2023/10/23 08:21:14;;;;;;;0.70;0.70;;;13.50;99.90;;;;;;5027603;28;20511;-83
2023/10/23 08:23:56;;;;;;;0.50;0.50;;;13.50;99.90;;;;;;5025395;28;20417;-84
2023/10/23 08:26:23;;;;;;;0.60;0.60;;;13.70;99.90;;;;;;5018663;28;20418;-82
2023/10/23 08:28:50;;;;;;;0.60;0.60;;;13.80;99.90;;;;;;5018168;28;20663;-84
2023/10/23 08:31:21;;;;;;;1.37;1.37;;;13.90;99.90;;;;;;5017819;28;20974;-84
2023/10/23 08:34:05;;;;;;;0.77;0.77;;;14.10;99.90;;;;;;5018346;28;20534;-82
2023/10/23 08:36:33;;;;;;;6.57;2.40;;;14.30;99.90;;;;;;5018235;28;20443;-81
2023/10/23 08:39:01;;;;;;;0.63;0.63;;;14.60;99.90;;;;;;5018578;28;20420;-84
2023/10/23 08:41:28;;;;;;;1.77;1.67;;;14.80;99.90;;;;;;5018249;28;20424;-82
2023/10/23 08:43:55;;;;;;;0.60;0.60;;;14.90;99.90;;;;;;5017192;28;20503;-83
2023/10/23 08:46:31;;;;;;;0.90;0.90;;;15.10;99.90;;;;;;5026865;28;20475;-82
2023/10/23 08:49:01;;;;;;;0.60;0.60;;;15.10;99.90;;;;;;5020821;28;20442;-82
2023/10/23 08:51:29;;;;;;;4.90;2.10;;;14.90;99.90;;;;;;5016465;28;20598;-82
2023/10/23 08:54:06;;;;;;;3.80;3.57;;;15.10;99.90;;;;;;5017141;28;20422;-82
2023/10/23 08:56:41;;;;;;;0.80;0.80;;;15.00;99.90;;;;;;5032089;28;20453;-83
2023/10/23 08:59:15;;;;;;;0.60;0.60;;;15.00;99.90;;;;;;5028666;28;20452;-82
2023/10/23 09:01:42;;;;;;;1.00;1.00;;;15.10;99.90;;;;;;5015949;28;20439;-83
2023/10/23 09:04:10;;;;;;;0.93;0.93;;;15.20;99.90;;;;;;5023538;28;20454;-83
2023/10/23 09:06:38;;;;;;;0.60;0.60;;;15.20;99.90;;;;;;5025771;28;20410;-81
2023/10/23 09:09:08;;;;;;;0.60;0.60;;;15.20;99.90;;;;;;5020755;28;20426;-83
2023/10/23 09:11:48;;;;;;;0.60;0.60;;;15.40;99.90;;;;;;5020576;28;21014;-81
2023/10/23 09:14:25;;;;;;;0.60;0.60;;;15.30;99.90;;;;;;5027800;28;20506;-83
2023/10/23 09:16:54;;;;;;;1.43;1.33;;;15.30;99.90;;;;;;5016742;28;20466;-82
2023/10/23 09:19:36;;;;;;;0.60;0.60;;;15.80;99.90;;;;;;5031537;28;20449;-84
2023/10/23 09:22:08;;;;;;;0.93;0.93;;;15.70;99.90;;;;;;5017568;28;20481;-83
2023/10/23 09:24:36;;;;;;;0.70;0.70;;;15.60;99.90;;;;;;5033175;28;20546;-82
2023/10/23 09:27:03;;;;;;;0.60;0.60;;;15.70;99.90;;;;;;5017032;28;20450;-82
2023/10/23 09:29:31;;;;;;;0.80;0.80;;;15.90;99.90;;;;;;5024477;28;20671;-84
2023/10/23 09:31:58;;;;;;;0.70;0.70;;;15.70;99.90;;;;;;5028309;28;20480;-85
2023/10/23 09:34:28;;;;;;;1.53;1.43;;;15.90;99.90;;;;;;5024684;28;20541;-84
2023/10/23 09:36:56;;;;;;;0.67;0.67;;;15.80;99.90;;;;;;5017061;28;20482;-83
2023/10/23 09:39:24;;;;;;;0.60;0.60;;;;;;;;;;5026405;28;20436;-83
2023/10/23 09:41:53;;;;;;;0.70;0.70;;;;;;;;;;5027251;28;20414;-82
2023/10/23 09:44:24;;;;;;;0.60;0.60;;;15.70;99.90;;;;;;5025269;28;20421;-82
2023/10/23 09:46:53;;;;;;;0.70;0.70;;;15.70;99.90;;;;;;5033148;28;20438;-80
2023/10/23 09:49:22;;;;;;;0.60;0.60;;;15.70;99.90;;;;;;5047563;28;20465;-80
2023/10/23 09:51:52;;;;;;;0.60;0.60;;;15.70;99.90;;;;;;5034016;28;20756;-85
2023/10/23 09:54:19;;;;;;;0.60;0.60;;;15.50;99.90;;;;;;5031400;28;20436;-81
2023/10/23 09:56:49;;;;;;;0.50;0.50;;;15.50;99.90;;;;;;5021307;28;20446;-80
2023/10/23 09:59:18;;;;;;;2.30;2.20;;;15.60;99.90;;;;;;5024389;28;20542;-82
2023/10/23 10:01:49;;;;;;;2.40;1.90;;;15.50;99.90;;;;;;5022440;28;21037;-80
2023/10/23 10:04:29;;;;;;;1.90;1.80;;;15.60;99.90;;;;;;5016056;28;20463;-82
2023/10/23 10:07:12;;;;;;;4.87;1.80;;;15.60;99.90;;;;;;5017605;28;20450;-82
2023/10/23 10:09:41;;;;;;;0.60;0.60;;;15.70;99.90;;;;;;5027530;28;20509;-82
2023/10/23 10:12:09;;;;;;;1.03;1.00;;;15.90;99.90;;;;;;5030018;28;20490;-81
2023/10/23 10:14:39;;;;;;;2.47;2.30;;;16.00;99.90;;;;;;5011491;28;20496;-80
2023/10/23 10:17:09;;;;;;;0.60;0.60;;;16.10;99.90;;;;;;5025650;28;20510;-81
2023/10/23 10:19:38;;;;;;;0.70;0.70;;;16.20;99.90;;;;;;5025797;28;20422;-81
2023/10/23 10:22:23;;;;;;;0.70;0.70;;;15.90;99.90;;;;;;5026082;28;20447;-81
2023/10/23 10:24:52;;;;;;;0.57;0.57;;;15.90;99.90;;;;;;5011106;28;20439;-84
2023/10/23 10:27:20;;;;;;;0.60;0.60;;;15.90;99.90;;;;;;5025314;28;20422;-79
2023/10/23 10:29:51;;;;;;;0.60;0.60;;;16.10;99.90;;;;;;5027960;28;20451;-83
2023/10/23 10:32:23;;;;;;;0.50;0.50;;;15.80;99.90;;;;;;5033228;28;20739;-79
2023/10/23 10:34:53;;;;;;;1.00;1.00;;;15.90;99.90;;;;;;5036425;28;20445;-80
2023/10/23 10:37:26;;;;;;;0.60;0.60;;;15.90;99.90;;;;;;5023960;28;20417;-80
2023/10/23 10:39:59;;;;;;;0.60;0.60;;;15.90;99.90;;;;;;5030886;28;20442;-80
2023/10/23 10:42:28;;;;;;;0.50;0.50;;;16.00;99.90;;;;;;5018235;28;20425;-81
2023/10/23 10:44:59;;;;;;;0.60;0.60;;;16.00;99.90;;;;;;5011267;28;20835;-81
2023/10/23 10:47:39;;;;;;;2.50;2.30;;;16.50;99.90;;;;;;5025003;28;20829;-80
2023/10/23 10:50:10;;;;;;;1.17;1.17;;;15.80;99.90;;;;;;5033155;28;20740;-80
2023/10/23 10:52:43;;;;;;;0.70;0.70;;;15.80;99.90;;;;;;5042140;28;20479;-80
2023/10/23 10:55:12;;;;;;;1.27;1.17;;;15.60;99.90;;;;;;5024849;28;20507;-81
2023/10/23 10:57:44;;;;;;;0.50;0.50;;;15.60;99.90;;;;;;5032036;28;20750;-81
2023/10/23 11:00:12;;;;;;;26.17;2.60;;;15.50;99.90;;;;;;5010463;28;20429;-81
2023/10/23 11:02:39;;;;;;;0.60;0.60;;;15.50;99.90;;;;;;5016019;28;20456;-81
2023/10/23 11:05:11;;;;;;;0.60;0.60;;;15.70;99.90;;;;;;5015968;28;20502;-80
2023/10/23 11:07:39;;;;;;;0.60;0.60;;;15.70;99.90;;;;;;5015994;28;20490;-79
2023/10/23 11:10:09;;;;;;;0.60;0.60;;;15.80;99.90;;;;;;5006352;28;20852;-80
2023/10/23 11:12:36;;;;;;;0.60;0.60;;;15.80;99.90;;;;;;5022513;28;20514;-82
2023/10/23 11:15:05;;;;;;;1.07;1.07;;;16.00;99.90;;;;;;5015229;28;20489;-80
2023/10/23 11:17:34;;;;;;;0.60;0.60;;;16.40;99.90;;;;;;5023964;28;20685;-80
2023/10/23 11:20:09;;;;;;;2.00;1.53;;;16.70;99.90;;;;;;5022525;28;20421;-79
2023/10/23 11:22:47;;;;;;;0.60;0.60;;;16.80;99.90;;;;;;5016991;28;20436;-81
2023/10/23 11:25:15;;;;;;;0.70;0.70;;;16.90;99.90;;;;;;5027522;28;20484;-84
2023/10/23 11:27:42;;;;;;;0.93;0.93;;;16.90;99.90;;;;;;5020751;28;20477;-82
2023/10/23 11:30:09;;;;;;;0.90;0.90;;;17.30;99.90;;;;;;5025194;28;20582;-80
2023/10/23 11:32:39;;;;;;;0.70;0.70;;;17.00;99.90;;;;;;5020244;28;20487;-83
2023/10/23 11:35:07;;;;;;;0.70;0.70;;;17.10;99.90;;;;;;5020297;28;20520;-81
2023/10/23 11:37:40;;;;;;;0.77;0.77;;;16.60;99.90;;;;;;5022513;28;20448;-83
2023/10/23 11:40:10;;;;;;;0.70;0.70;;;16.70;99.90;;;;;;5031974;28;20449;-80
2023/10/23 11:42:45;;;;;;;0.73;0.73;;;16.70;99.90;;;;;;5021349;28;20640;-79
2023/10/23 11:45:19;;;;;;;1.00;1.00;;;16.90;99.90;;;;;;5018102;28;20426;-83
2023/10/23 11:47:46;;;;;;;0.70;0.70;;;16.90;99.90;;;;;;5024980;28;20493;-81
2023/10/23 11:50:13;;;;;;;0.70;0.70;;;16.90;99.90;;;;;;5021761;28;20831;-80
2023/10/23 11:52:43;;;;;;;0.70;0.70;;;16.90;99.90;;;;;;5021167;28;20464;-81
2023/10/23 11:55:12;;;;;;;0.70;0.70;;;16.80;99.90;;;;;;5017737;28;20524;-82
2023/10/23 11:57:47;;;;;;;1.20;1.20;;;16.90;99.90;;;;;;5019742;28;20505;-83
2023/10/23 12:00:17;;;;;;;0.73;0.73;;;17.10;99.90;;;;;;5012157;28;20450;-81
2023/10/23 12:02:47;;;;;;;0.70;0.70;;;17.10;99.90;;;;;;5018421;28;20463;-81
2023/10/23 12:05:21;;;;;;;0.70;0.70;;;17.00;99.90;;;;;;5019277;28;20423;-80
2023/10/23 12:07:52;;;;;;;0.80;0.80;;;16.80;99.90;;;;;;5027965;28;20463;-81
2023/10/23 12:10:22;;;;;;;0.70;0.70;;;16.70;99.90;;;;;;5023016;28;20421;-84
2023/10/23 12:12:52;;;;;;;0.80;0.80;;;16.70;99.90;;;;;;5016277;28;20664;-82
2023/10/23 12:15:21;;;;;;;0.97;0.97;;;16.70;99.90;;;;;;5029296;28;20410;-85
2023/10/23 12:17:53;;;;;;;1.20;1.20;;;16.50;99.90;;;;;;5017259;28;20436;-83
2023/10/23 12:20:23;;;;;;;0.70;0.70;;;16.50;99.90;;;;;;5011356;28;20777;-82
2023/10/23 12:22:51;;;;;;;0.60;0.60;;;16.60;99.90;;;;;;5026773;28;20448;-81
2023/10/23 12:25:19;;;;;;;0.70;0.70;;;16.50;99.90;;;;;;5017958;28;20504;-79
2023/10/23 12:27:46;;;;;;;1.53;1.43;;;16.50;99.90;;;;;;5021346;28;20845;-79
2023/10/23 12:30:15;;;;;;;0.70;0.70;;;16.60;99.90;;;;;;5024031;28;20451;-82
2023/10/23 12:32:52;;;;;;;0.70;0.70;;;16.80;99.90;;;;;;5019155;28;20826;-80
2023/10/23 12:35:39;;;;;;;0.70;0.70;;;16.80;99.90;;;;;;5021144;28;20417;-78
2023/10/23 12:38:06;;;;;;;0.70;0.70;;;16.80;99.90;;;;;;5019763;28;20651;-82
2023/10/23 12:40:33;;;;;;;0.70;0.70;;;16.60;99.90;;;;;;5019147;28;20449;-82
2023/10/23 12:43:03;;;;;;;0.60;0.60;;;16.50;99.90;;;;;;5018587;28;20935;-85
2023/10/23 12:45:34;;;;;;;7.40;1.83;;;16.60;99.90;;;;;;5025111;28;20425;-85
2023/10/23 12:48:01;;;;;;;1.10;1.10;;;16.40;99.90;;;;;;5027713;28;20425;-81
2023/10/23 12:50:28;;;;;;;0.70;0.70;;;16.40;99.90;;;;;;5019761;28;20439;-80
2023/10/23 12:52:57;;;;;;;0.60;0.60;;;16.40;99.90;;;;;;5018488;28;20594;-79
2023/10/23 12:55:24;;;;;;;3.50;3.13;;;16.30;99.90;;;;;;5026939;28;20481;-83
2023/10/23 12:57:53;;;;;;;0.73;0.73;;;16.40;99.90;;;;;;5032703;28;20462;-84
2023/10/23 13:00:21;;;;;;;12.23;3.10;;;16.40;99.90;;;;;;5021435;28;20444;-80